Hauptseite
METAR-TAF:

METAR-TAF

Flughäfen :

Tripolis, Libyen

Mitiga International Airport

Breite: 32-54N, Länge: 13-17E, Höhe: 11 m

Beobachtung

Neuester Wetterbericht von vor 53 Minuten, um 13:50 UTC
Wind 6 kt aus Nordost
Temperatur 21°C
Luftfeuchtigkeit 60%
Luftdruck 1019 hPa
Sichtweite: 6000 m

METAR: HLLM 241350Z 05006KT 6000 NSC 21/13 Q1019

Zeit: 16:43 (14:43 UTC)

Prognose

Neuester Wetterbericht von vor 3 Stunden und 43 Minuten, um 11:00 UTC
Gültige Prognose vom 24 um 12 UTC bis 25 um 12 UTC
Wind 8 kt aus Südost
Sichtweite: 8000 m

TAF: HLLM 241100Z 2412/2512 14008KT 8000 NSC

Wetterbeobachtungen und Prognosen von mehr als 4000 Flughäfen (METAR und TAF Bericht).

Die verfügbaren Stationen werden durch gelbe und rote Markierungen auf der Karte dargestellt.

Führen Sie die Maus auf sie, um den Namen der Station zu sehen.

Darauf klicken, um die Beobachtung von Wetterbeobachtungen und Prognosen zu sehen.

Um die Karte zu ändern : klicken Sie auf den grünen Tasten mit einem schwarzen Kreuz Zum Vergrößern, auf den grünen Button mit einem Gedankenstrich zu verkleinern, oder auf die grünen Pfeile für benachbarte Karten.


METAR-TAF: